Flugplatz Braunschweig Wolfsburg

Bericht für EDVE

vom 24.05. um 04:50 UTC

Wind 5 kt aus 70°

Sichtweite 10 km oder mehr

gute Sicht, keine Wolken < 5000 ft, keine CB, keine Wettererscheinungen (CAVOK)

Temperatur 13.0°C

Taupunkt 8.0°C

Luftfeuchtigkeit 72%

Luftdruck 1023 hPa

EDVE 240450Z 07005KT 020V090 CAVOK 13/08 Q1023
Keine Prognose (TAF) verfügbar.
Impressum